METAR Data
IDs: Format: Raw Decoded Include TAF

Data at: 2121 UTC 24 Mar 2019

KLBB 242053Z 00000KT 10SM FEW080 SCT180 BKN200 21/01 A3004 RMK AO2 SLP147 T02060006 56015 $
KLBB 241953Z 11003KT 10SM FEW180 SCT230 BKN260 21/01 A3006 RMK AO2 SLP151 T02110011 $
KLBB 241853Z VRB03KT 10SM BKN250 21/03 A3007 RMK AO2 SLP150 T02060028 $
KLBB 241753Z 11007KT 080V140 10SM SCT220 BKN260 18/04 A3009 RMK AO2 SLP163 T01780039 10178 20044 51003 $
KLBB 241653Z 05008KT 10SM SCT220 BKN260 17/04 A3009 RMK AO2 SLP161 T01670039 $
KLBB 241553Z 04007KT 10SM BKN220 BKN250 13/04 A3009 RMK AO2 SLP166 T01330039 /
KLBB 241453Z 02007KT 10SM SCT230 SCT260 BKN300 10/03 A3008 RMK AO2 SLP166 BKN LYR THN T01000033 51022 $
KLBB 241353Z 34006KT 10SM FEW200 FEW260 SCT300 07/02 A3006 RMK AO2 SLP162 T00720022 $
KLBB 241253Z 36008KT 10SM FEW200 SCT260 SCT300 05/02 A3003 RMK AO2 SLP149 T00500017 $
KLBB 241153Z 34011KT 10SM SCT260 06/M01 A3001 RMK AO2 SLP138 T00561006 10122 20033 53006 $
KLBB 241053Z 29009KT 10SM FEW260 03/M02 A3000 RMK AO2 SLP138 T00331022 $
KLBB 240953Z 30003KT 10SM FEW270 05/M03 A2999 RMK AO2 SLP129 T00501028 /
KLBB 240853Z 32005KT 10SM FEW300 07/M03 A2999 RMK AO2 SLP127 T00671028 58002 $
KLBB 240753Z 32008KT 10SM SCT300 07/M02 A3000 RMK AO2 SLP130 T00671022 $
KLBB 240653Z 20006KT 10SM SCT300 12/M05 A2999 RMK AO2 SLP122 T01221050 $
KLBB 240553Z 22006KT 10SM CLR 11/M04 A2999 RMK AO2 SLP129 T01061039 10206 20106 402330039 51003 $
KLBB 240453Z 20008KT 10SM CLR 12/M04 A2999 RMK AO2 SLP128 T01221044 $
KLBB 240353Z 20006KT 10SM CLR 13/M03 A2999 RMK AO2 SLP129 T01281033 /
KLBB 240253Z 20009KT 10SM FEW260 13/M03 A2999 RMK AO2 SLP129 T01331033 53016 $
KLBB 240153Z 22007KT 10SM CLR 15/M03 A2997 RMK AO2 SLP127 T01501033 $
KLBB 240053Z 22008KT 10SM SCT180 BKN260 BKN300 18/M04 A2994 RMK AO2 SLP118 T01831039 $
KLBB 232353Z 24014KT 10SM FEW180 BKN260 BKN300 21/M05 A2994 RMK AO2 SLP112 T02061050 10233 20189 55002 $
KLBB 232253Z 24017G24KT 10SM FEW170 BKN260 BKN300 21/M06 A2994 RMK AO2 SLP109 T02111061 $
KLBB 232153Z 24017KT 10SM FEW180 BKN260 BKN300 22/M06 A2993 RMK AO2 PK WND 27026/2057 SLP104 T02171061 $
KLBB 232053Z COR 27012G22KT 10SM FEW180 BKN260 BKN300 23/M05 A2994 RMK AO2 PK WND 25027/2002 SLP104 T02331050 56020 /
KLBB 231953Z 23016G27KT 10SM FEW200 SCT250 BKN300 22/M02 A2996 RMK AO2 PK WND 22027/1945 SLP110 BKN LYR THN T02171022 $
KLBB 231853Z 26015G20KT 10SM FEW200 FEW250 SCT300 21/M02 A2998 RMK AO2 SLP119 T02061022 $
KLBB 231753Z 28013KT 10SM FEW250 SCT300 19/M02 A3001 RMK AO2 SLP130 T01891022 10189 20039 58009 $
KLBB 231653Z 28016G21KT 10SM FEW250 SCT300 17/M02 A3002 RMK AO2 SLP136 T01721022 $
KLBB 231553Z 29015G22KT 10SM FEW250 SCT300 16/01 A3003 RMK AO2 SLP139 T01560011 $
KLBB 231453Z 27012KT 10SM FEW250 13/02 A3003 RMK AO2 SLP144 T01280017 51018 $
KLBB 231353Z 27009KT 10SM FEW020 FEW200 08/01 A3002 RMK AO2 SLP144 FU FEW020 W T00780011 /
KLBB 231253Z 27007KT 10SM FEW010 FEW200 04/01 A3000 RMK AO2 SLP140 LOW CLDS DSNT SE T00390006 /
KLBB 231153Z 28008KT 10SM FEW250 04/02 A2998 RMK AO2 SLP132 70001 T00440017 10133 20044 53004 $
KLBB 231053Z 27007KT 9SM CLR 08/06 A2995 RMK AO2 SLP119 T00780056 $
KLBB 230953Z 24008KT 8SM FEW260 10/09 A2995 RMK AO2 SLP114 T01000094 $